Cedarview, Washington
Current Conditions -  °F | °C
As of 4:32 PM on Thursday 18 Dec 2014 (Local Time) from KTCM Reporting Station
Overcast Overcast  
Wind Chill: 46°   Ceiling: 4200
Heat Index: 46°   Visibility: 10mi
Dew Point: 46°   Wind: 2mph
Humidity: 100%   Direction: 140°SE
Pressure: 29.78"   Gusts: NA
Location:  47.1874°N, 122.164°W
Report Text: KTCM 190032Z AUTO 14002KT 10SM BKN042 BKN055 OVC065 08/08 A2978 RMK AO2 RAE32
Loading
Personal Weather Stations






























Interactive Weather Map New forecast layout! Learn more

10-Day Weather Forecast

Advertisements
Track Severe Weather on mobile